sensor_id;sensor_type;location;lat;lon;timestamp;P1;durP1;ratioP1;P2;durP2;ratioP2
13475;SDS011;6810;63.824;20.288;2023-02-17T00:00:53;2.60;;;1.73;;
13475;SDS011;6810;63.824;20.288;2023-02-17T00:03:41;3.07;;;1.60;;
13475;SDS011;6810;63.824;20.288;2023-02-17T00:06:28;2.37;;;1.47;;
13475;SDS011;6810;63.824;20.288;2023-02-17T00:09:16;3.13;;;1.70;;
13475;SDS011;6810;63.824;20.288;2023-02-17T00:12:03;2.47;;;1.73;;
13475;SDS011;6810;63.824;20.288;2023-02-17T00:14:50;2.73;;;1.70;;
13475;SDS011;6810;63.824;20.288;2023-02-17T00:17:37;5.40;;;2.30;;
13475;SDS011;6810;63.824;20.288;2023-02-17T00:20:24;2.83;;;1.87;;
13475;SDS011;6810;63.824;20.288;2023-02-17T00:23:11;2.87;;;1.70;;
13475;SDS011;6810;63.824;20.288;2023-02-17T00:25:58;2.70;;;1.80;;
13475;SDS011;6810;63.824;20.288;2023-02-17T00:28:46;2.10;;;1.60;;
13475;SDS011;6810;63.824;20.288;2023-02-17T00:31:34;3.40;;;1.53;;
13475;SDS011;6810;63.824;20.288;2023-02-17T00:34:21;5.70;;;1.80;;
13475;SDS011;6810;63.824;20.288;2023-02-17T00:37:08;2.00;;;1.43;;
13475;SDS011;6810;63.824;20.288;2023-02-17T00:39:55;2.50;;;1.40;;
13475;SDS011;6810;63.824;20.288;2023-02-17T00:42:42;3.13;;;1.30;;
13475;SDS011;6810;63.824;20.288;2023-02-17T00:45:29;4.47;;;1.50;;
13475;SDS011;6810;63.824;20.288;2023-02-17T00:48:19;4.47;;;1.70;;
13475;SDS011;6810;63.824;20.288;2023-02-17T00:51:06;3.23;;;1.60;;
13475;SDS011;6810;63.824;20.288;2023-02-17T00:53:55;4.67;;;1.73;;
13475;SDS011;6810;63.824;20.288;2023-02-17T00:56:42;3.30;;;1.70;;
13475;SDS011;6810;63.824;20.288;2023-02-17T00:59:30;3.90;;;1.47;;
13475;SDS011;6810;63.824;20.288;2023-02-17T01:02:17;2.70;;;1.47;;
13475;SDS011;6810;63.824;20.288;2023-02-17T01:05:04;3.10;;;1.90;;
13475;SDS011;6810;63.824;20.288;2023-02-17T01:07:52;1.90;;;1.37;;
13475;SDS011;6810;63.824;20.288;2023-02-17T01:10:39;2.27;;;1.23;;
13475;SDS011;6810;63.824;20.288;2023-02-17T01:13:29;3.23;;;1.50;;
13475;SDS011;6810;63.824;20.288;2023-02-17T01:16:20;2.77;;;1.60;;
13475;SDS011;6810;63.824;20.288;2023-02-17T01:19:10;2.20;;;1.50;;
13475;SDS011;6810;63.824;20.288;2023-02-17T01:21:58;6.30;;;1.90;;
13475;SDS011;6810;63.824;20.288;2023-02-17T01:24:46;4.17;;;1.80;;
13475;SDS011;6810;63.824;20.288;2023-02-17T01:27:33;4.70;;;1.90;;
13475;SDS011;6810;63.824;20.288;2023-02-17T01:30:20;3.13;;;2.10;;
13475;SDS011;6810;63.824;20.288;2023-02-17T01:33:08;3.63;;;1.70;;
13475;SDS011;6810;63.824;20.288;2023-02-17T01:36:00;2.87;;;1.73;;
13475;SDS011;6810;63.824;20.288;2023-02-17T01:38:28;3.40;;;1.83;;
13475;SDS011;6810;63.824;20.288;2023-02-17T01:40:55;2.30;;;1.90;;
13475;SDS011;6810;63.824;20.288;2023-02-17T01:43:22;3.73;;;1.97;;
13475;SDS011;6810;63.824;20.288;2023-02-17T01:45:56;3.53;;;2.10;;
13475;SDS011;6810;63.824;20.288;2023-02-17T01:48:24;3.20;;;1.80;;
13475;SDS011;6810;63.824;20.288;2023-02-17T01:53:36;3.27;;;1.80;;
13475;SDS011;6810;63.824;20.288;2023-02-17T01:56:05;2.77;;;1.83;;
13475;SDS011;6810;63.824;20.288;2023-02-17T01:58:37;3.20;;;2.00;;
13475;SDS011;6810;63.824;20.288;2023-02-17T02:01:06;2.57;;;1.80;;
13475;SDS011;6810;63.824;20.288;2023-02-17T02:03:34;3.80;;;2.20;;
13475;SDS011;6810;63.824;20.288;2023-02-17T02:06:05;2.40;;;1.73;;
13475;SDS011;6810;63.824;20.288;2023-02-17T02:08:46;4.33;;;1.90;;
13475;SDS011;6810;63.824;20.288;2023-02-17T02:11:20;2.60;;;1.80;;
13475;SDS011;6810;63.824;20.288;2023-02-17T02:13:47;3.43;;;1.77;;
13475;SDS011;6810;63.824;20.288;2023-02-17T02:16:21;2.53;;;1.73;;
13475;SDS011;6810;63.824;20.288;2023-02-17T02:27:47;3.70;;;2.17;;
13475;SDS011;6810;63.824;20.288;2023-02-17T02:41:33;3.43;;;1.83;;
13475;SDS011;6810;63.824;20.288;2023-02-17T02:44:23;2.83;;;1.67;;
13475;SDS011;6810;63.824;20.288;2023-02-17T03:03:11;2.57;;;1.70;;
13475;SDS011;6810;63.824;20.288;2023-02-17T03:06:07;3.03;;;1.80;;
13475;SDS011;6810;63.824;20.288;2023-02-17T03:11:48;2.33;;;1.67;;
13475;SDS011;6810;63.824;20.288;2023-02-17T03:14:36;3.70;;;2.00;;
13475;SDS011;6810;63.824;20.288;2023-02-17T03:17:24;3.13;;;1.60;;
13475;SDS011;6810;63.824;20.288;2023-02-17T03:20:11;2.50;;;1.60;;
13475;SDS011;6810;63.824;20.288;2023-02-17T03:23:01;2.53;;;1.30;;
13475;SDS011;6810;63.824;20.288;2023-02-17T03:25:50;2.53;;;1.70;;
13475;SDS011;6810;63.824;20.288;2023-02-17T03:28:37;4.43;;;1.50;;
13475;SDS011;6810;63.824;20.288;2023-02-17T03:31:24;3.53;;;1.73;;
13475;SDS011;6810;63.824;20.288;2023-02-17T03:34:11;2.83;;;1.50;;
13475;SDS011;6810;63.824;20.288;2023-02-17T03:36:58;2.10;;;1.40;;
13475;SDS011;6810;63.824;20.288;2023-02-17T03:39:45;2.73;;;1.60;;
13475;SDS011;6810;63.824;20.288;2023-02-17T03:42:32;2.97;;;1.47;;
13475;SDS011;6810;63.824;20.288;2023-02-17T03:45:19;2.17;;;1.53;;
13475;SDS011;6810;63.824;20.288;2023-02-17T03:48:06;2.43;;;1.50;;
13475;SDS011;6810;63.824;20.288;2023-02-17T03:50:53;2.60;;;1.30;;
13475;SDS011;6810;63.824;20.288;2023-02-17T03:53:40;2.17;;;1.17;;
13475;SDS011;6810;63.824;20.288;2023-02-17T03:56:28;1.50;;;1.40;;
13475;SDS011;6810;63.824;20.288;2023-02-17T03:59:15;1.60;;;1.20;;
13475;SDS011;6810;63.824;20.288;2023-02-17T04:02:03;1.87;;;1.13;;
13475;SDS011;6810;63.824;20.288;2023-02-17T04:04:50;1.83;;;1.30;;
13475;SDS011;6810;63.824;20.288;2023-02-17T04:07:37;2.47;;;1.20;;
13475;SDS011;6810;63.824;20.288;2023-02-17T04:10:24;2.97;;;1.50;;
13475;SDS011;6810;63.824;20.288;2023-02-17T04:13:11;1.90;;;1.10;;
13475;SDS011;6810;63.824;20.288;2023-02-17T04:15:58;3.63;;;1.27;;
13475;SDS011;6810;63.824;20.288;2023-02-17T04:18:45;2.33;;;1.30;;
13475;SDS011;6810;63.824;20.288;2023-02-17T04:21:32;1.50;;;1.00;;
13475;SDS011;6810;63.824;20.288;2023-02-17T04:24:19;2.00;;;1.20;;
13475;SDS011;6810;63.824;20.288;2023-02-17T04:27:06;3.07;;;1.10;;
13475;SDS011;6810;63.824;20.288;2023-02-17T04:29:53;4.27;;;0.83;;
13475;SDS011;6810;63.824;20.288;2023-02-17T04:32:40;3.40;;;1.20;;
13475;SDS011;6810;63.824;20.288;2023-02-17T04:35:28;1.60;;;1.23;;
13475;SDS011;6810;63.824;20.288;2023-02-17T04:38:15;2.60;;;1.10;;
13475;SDS011;6810;63.824;20.288;2023-02-17T04:41:03;1.63;;;1.10;;
13475;SDS011;6810;63.824;20.288;2023-02-17T04:43:51;1.90;;;1.23;;
13475;SDS011;6810;63.824;20.288;2023-02-17T04:46:38;2.13;;;1.00;;
13475;SDS011;6810;63.824;20.288;2023-02-17T04:49:25;2.30;;;1.20;;
13475;SDS011;6810;63.824;20.288;2023-02-17T04:52:32;2.80;;;1.23;;
13475;SDS011;6810;63.824;20.288;2023-02-17T04:55:18;2.57;;;1.40;;
13475;SDS011;6810;63.824;20.288;2023-02-17T04:58:06;2.80;;;1.20;;
13475;SDS011;6810;63.824;20.288;2023-02-17T05:00:53;2.93;;;1.13;;
13475;SDS011;6810;63.824;20.288;2023-02-17T05:03:45;2.30;;;1.23;;
13475;SDS011;6810;63.824;20.288;2023-02-17T05:06:31;3.10;;;1.40;;
13475;SDS011;6810;63.824;20.288;2023-02-17T05:09:19;4.00;;;1.60;;
13475;SDS011;6810;63.824;20.288;2023-02-17T05:12:06;2.33;;;1.13;;
13475;SDS011;6810;63.824;20.288;2023-02-17T05:14:53;3.87;;;1.30;;
13475;SDS011;6810;63.824;20.288;2023-02-17T05:17:40;1.40;;;1.20;;
13475;SDS011;6810;63.824;20.288;2023-02-17T05:20:27;2.50;;;1.30;;
13475;SDS011;6810;63.824;20.288;2023-02-17T05:23:14;2.57;;;1.30;;
13475;SDS011;6810;63.824;20.288;2023-02-17T05:26:02;1.83;;;1.10;;
13475;SDS011;6810;63.824;20.288;2023-02-17T05:28:49;2.77;;;1.30;;
13475;SDS011;6810;63.824;20.288;2023-02-17T05:31:36;1.43;;;1.20;;
13475;SDS011;6810;63.824;20.288;2023-02-17T05:34:23;1.47;;;1.07;;
13475;SDS011;6810;63.824;20.288;2023-02-17T05:37:10;1.50;;;1.20;;
13475;SDS011;6810;63.824;20.288;2023-02-17T05:39:57;2.57;;;1.30;;
13475;SDS011;6810;63.824;20.288;2023-02-17T05:42:47;1.60;;;1.17;;
13475;SDS011;6810;63.824;20.288;2023-02-17T05:45:34;1.83;;;1.20;;
13475;SDS011;6810;63.824;20.288;2023-02-17T05:48:21;2.23;;;1.20;;
13475;SDS011;6810;63.824;20.288;2023-02-17T05:51:08;2.57;;;1.13;;
13475;SDS011;6810;63.824;20.288;2023-02-17T05:53:55;1.50;;;0.90;;
13475;SDS011;6810;63.824;20.288;2023-02-17T05:56:42;2.07;;;1.10;;
13475;SDS011;6810;63.824;20.288;2023-02-17T05:59:29;2.53;;;1.07;;
13475;SDS011;6810;63.824;20.288;2023-02-17T06:02:16;1.27;;;0.93;;
13475;SDS011;6810;63.824;20.288;2023-02-17T06:05:03;2.93;;;0.90;;
13475;SDS011;6810;63.824;20.288;2023-02-17T06:07:50;1.93;;;1.03;;
13475;SDS011;6810;63.824;20.288;2023-02-17T06:10:37;1.67;;;1.07;;
13475;SDS011;6810;63.824;20.288;2023-02-17T06:13:24;2.20;;;1.27;;
13475;SDS011;6810;63.824;20.288;2023-02-17T06:16:11;1.50;;;0.93;;
13475;SDS011;6810;63.824;20.288;2023-02-17T06:18:58;3.37;;;1.00;;
13475;SDS011;6810;63.824;20.288;2023-02-17T06:21:45;1.73;;;1.00;;
13475;SDS011;6810;63.824;20.288;2023-02-17T06:24:32;1.43;;;0.93;;
13475;SDS011;6810;63.824;20.288;2023-02-17T06:27:20;1.87;;;1.30;;
13475;SDS011;6810;63.824;20.288;2023-02-17T06:30:07;3.30;;;1.10;;
13475;SDS011;6810;63.824;20.288;2023-02-17T06:32:54;2.17;;;1.10;;
13475;SDS011;6810;63.824;20.288;2023-02-17T06:35:41;2.03;;;1.10;;
13475;SDS011;6810;63.824;20.288;2023-02-17T06:38:33;1.03;;;0.93;;
13475;SDS011;6810;63.824;20.288;2023-02-17T06:41:20;2.87;;;1.03;;
13475;SDS011;6810;63.824;20.288;2023-02-17T06:44:07;1.30;;;1.00;;
13475;SDS011;6810;63.824;20.288;2023-02-17T06:46:54;1.00;;;0.80;;
13475;SDS011;6810;63.824;20.288;2023-02-17T06:49:41;2.97;;;1.03;;
13475;SDS011;6810;63.824;20.288;2023-02-17T06:52:28;1.83;;;1.00;;
13475;SDS011;6810;63.824;20.288;2023-02-17T06:55:16;2.40;;;1.40;;
13475;SDS011;6810;63.824;20.288;2023-02-17T06:58:03;1.37;;;1.10;;
13475;SDS011;6810;63.824;20.288;2023-02-17T07:00:50;2.13;;;1.30;;
13475;SDS011;6810;63.824;20.288;2023-02-17T07:03:37;2.97;;;0.90;;
13475;SDS011;6810;63.824;20.288;2023-02-17T07:06:24;2.97;;;1.40;;
13475;SDS011;6810;63.824;20.288;2023-02-17T07:09:11;3.10;;;1.37;;
13475;SDS011;6810;63.824;20.288;2023-02-17T07:11:58;1.90;;;1.40;;
13475;SDS011;6810;63.824;20.288;2023-02-17T07:14:46;2.03;;;1.17;;
13475;SDS011;6810;63.824;20.288;2023-02-17T07:17:37;2.70;;;1.30;;
13475;SDS011;6810;63.824;20.288;2023-02-17T07:20:24;2.63;;;1.50;;
13475;SDS011;6810;63.824;20.288;2023-02-17T07:23:11;1.10;;;0.90;;
13475;SDS011;6810;63.824;20.288;2023-02-17T07:26:01;3.03;;;1.63;;
13475;SDS011;6810;63.824;20.288;2023-02-17T07:28:52;4.10;;;1.30;;
13475;SDS011;6810;63.824;20.288;2023-02-17T07:31:39;2.70;;;1.40;;
13475;SDS011;6810;63.824;20.288;2023-02-17T07:34:26;3.03;;;1.30;;
13475;SDS011;6810;63.824;20.288;2023-02-17T07:37:13;2.00;;;1.10;;
13475;SDS011;6810;63.824;20.288;2023-02-17T07:40:00;1.73;;;1.27;;
13475;SDS011;6810;63.824;20.288;2023-02-17T07:42:47;2.73;;;1.13;;
13475;SDS011;6810;63.824;20.288;2023-02-17T07:45:34;5.47;;;1.70;;
13475;SDS011;6810;63.824;20.288;2023-02-17T07:48:24;2.97;;;1.57;;
13475;SDS011;6810;63.824;20.288;2023-02-17T07:51:12;3.87;;;1.80;;
13475;SDS011;6810;63.824;20.288;2023-02-17T07:54:01;2.60;;;1.63;;
13475;SDS011;6810;63.824;20.288;2023-02-17T07:56:48;3.20;;;1.37;;
13475;SDS011;6810;63.824;20.288;2023-02-17T07:59:35;3.73;;;1.40;;
13475;SDS011;6810;63.824;20.288;2023-02-17T08:02:22;2.27;;;1.47;;
13475;SDS011;6810;63.824;20.288;2023-02-17T08:05:09;3.20;;;1.40;;
13475;SDS011;6810;63.824;20.288;2023-02-17T08:07:56;2.47;;;1.40;;
13475;SDS011;6810;63.824;20.288;2023-02-17T08:10:42;3.83;;;2.03;;
13475;SDS011;6810;63.824;20.288;2023-02-17T08:13:27;2.50;;;1.67;;
13475;SDS011;6810;63.824;20.288;2023-02-17T08:15:55;2.67;;;1.33;;
13475;SDS011;6810;63.824;20.288;2023-02-17T08:18:22;5.80;;;1.60;;
13475;SDS011;6810;63.824;20.288;2023-02-17T08:20:48;3.17;;;1.77;;
13475;SDS011;6810;63.824;20.288;2023-02-17T08:23:16;2.83;;;1.80;;
13475;SDS011;6810;63.824;20.288;2023-02-17T08:26:05;3.70;;;1.40;;
13475;SDS011;6810;63.824;20.288;2023-02-17T08:28:52;4.03;;;2.00;;
13475;SDS011;6810;63.824;20.288;2023-02-17T08:31:39;5.17;;;2.10;;
13475;SDS011;6810;63.824;20.288;2023-02-17T08:34:27;4.53;;;1.63;;
13475;SDS011;6810;63.824;20.288;2023-02-17T08:37:14;4.00;;;1.77;;
13475;SDS011;6810;63.824;20.288;2023-02-17T08:39:44;3.37;;;1.70;;
13475;SDS011;6810;63.824;20.288;2023-02-17T08:42:11;6.67;;;1.67;;
13475;SDS011;6810;63.824;20.288;2023-02-17T08:44:38;4.60;;;2.20;;
13475;SDS011;6810;63.824;20.288;2023-02-17T08:47:05;2.37;;;2.00;;
13475;SDS011;6810;63.824;20.288;2023-02-17T08:49:33;6.20;;;2.00;;
13475;SDS011;6810;63.824;20.288;2023-02-17T08:52:00;4.13;;;1.83;;
13475;SDS011;6810;63.824;20.288;2023-02-17T08:54:28;4.50;;;2.03;;
13475;SDS011;6810;63.824;20.288;2023-02-17T08:56:55;2.67;;;1.90;;
13475;SDS011;6810;63.824;20.288;2023-02-17T08:59:22;4.10;;;1.90;;
13475;SDS011;6810;63.824;20.288;2023-02-17T09:01:49;3.37;;;1.90;;
13475;SDS011;6810;63.824;20.288;2023-02-17T09:04:16;4.57;;;1.90;;
13475;SDS011;6810;63.824;20.288;2023-02-17T09:06:45;5.07;;;2.07;;
13475;SDS011;6810;63.824;20.288;2023-02-17T09:09:16;7.77;;;2.60;;
13475;SDS011;6810;63.824;20.288;2023-02-17T09:11:45;5.67;;;2.57;;
13475;SDS011;6810;63.824;20.288;2023-02-17T09:14:12;5.80;;;2.33;;
13475;SDS011;6810;63.824;20.288;2023-02-17T09:16:39;11.63;;;3.00;;
13475;SDS011;6810;63.824;20.288;2023-02-17T09:19:07;8.07;;;2.70;;
13475;SDS011;6810;63.824;20.288;2023-02-17T09:21:35;6.17;;;2.20;;
13475;SDS011;6810;63.824;20.288;2023-02-17T09:24:02;11.67;;;3.20;;
13475;SDS011;6810;63.824;20.288;2023-02-17T09:26:49;6.23;;;2.77;;
13475;SDS011;6810;63.824;20.288;2023-02-17T09:29:37;12.23;;;3.10;;
13475;SDS011;6810;63.824;20.288;2023-02-17T09:32:24;6.87;;;2.67;;
13475;SDS011;6810;63.824;20.288;2023-02-17T09:35:12;6.10;;;2.47;;
13475;SDS011;6810;63.824;20.288;2023-02-17T09:38:00;6.77;;;2.60;;
13475;SDS011;6810;63.824;20.288;2023-02-17T09:40:48;4.90;;;2.40;;
13475;SDS011;6810;63.824;20.288;2023-02-17T09:43:16;5.60;;;2.30;;
13475;SDS011;6810;63.824;20.288;2023-02-17T09:45:49;5.73;;;2.37;;
13475;SDS011;6810;63.824;20.288;2023-02-17T09:48:19;4.03;;;2.20;;
13475;SDS011;6810;63.824;20.288;2023-02-17T09:56:21;5.30;;;2.00;;
13475;SDS011;6810;63.824;20.288;2023-02-17T09:58:57;5.93;;;1.90;;
13475;SDS011;6810;63.824;20.288;2023-02-17T10:01:28;2.37;;;1.93;;
13475;SDS011;6810;63.824;20.288;2023-02-17T10:04:04;3.17;;;1.83;;
13475;SDS011;6810;63.824;20.288;2023-02-17T10:06:38;3.37;;;1.70;;
13475;SDS011;6810;63.824;20.288;2023-02-17T10:09:23;4.33;;;1.87;;
13475;SDS011;6810;63.824;20.288;2023-02-17T10:12:00;3.57;;;1.60;;
13475;SDS011;6810;63.824;20.288;2023-02-17T10:17:19;3.10;;;1.90;;
13475;SDS011;6810;63.824;20.288;2023-02-17T10:19:59;4.80;;;1.83;;
13475;SDS011;6810;63.824;20.288;2023-02-17T10:22:41;4.07;;;1.87;;
13475;SDS011;6810;63.824;20.288;2023-02-17T10:25:19;4.47;;;1.90;;
13475;SDS011;6810;63.824;20.288;2023-02-17T10:28:01;4.23;;;2.10;;
13475;SDS011;6810;63.824;20.288;2023-02-17T10:33:27;5.57;;;2.53;;
13475;SDS011;6810;63.824;20.288;2023-02-17T10:41:14;5.07;;;2.63;;
13475;SDS011;6810;63.824;20.288;2023-02-17T10:43:48;5.50;;;2.83;;
13475;SDS011;6810;63.824;20.288;2023-02-17T10:46:16;4.27;;;2.60;;
13475;SDS011;6810;63.824;20.288;2023-02-17T10:48:48;6.27;;;2.80;;
13475;SDS011;6810;63.824;20.288;2023-02-17T10:51:19;5.27;;;3.20;;
13475;SDS011;6810;63.824;20.288;2023-02-17T10:53:53;7.27;;;2.83;;
13475;SDS011;6810;63.824;20.288;2023-02-17T10:56:32;5.40;;;3.00;;
13475;SDS011;6810;63.824;20.288;2023-02-17T10:59:25;4.53;;;2.67;;
13475;SDS011;6810;63.824;20.288;2023-02-17T11:05:02;5.80;;;3.60;;
13475;SDS011;6810;63.824;20.288;2023-02-17T11:07:54;4.57;;;2.87;;
13475;SDS011;6810;63.824;20.288;2023-02-17T11:10:47;5.90;;;3.43;;
13475;SDS011;6810;63.824;20.288;2023-02-17T11:16:53;5.60;;;2.77;;
13475;SDS011;6810;63.824;20.288;2023-02-17T11:26:06;7.93;;;3.73;;
13475;SDS011;6810;63.824;20.288;2023-02-17T11:29:20;10.20;;;4.23;;
13475;SDS011;6810;63.824;20.288;2023-02-17T11:32:07;9.13;;;4.30;;
13475;SDS011;6810;63.824;20.288;2023-02-17T11:34:57;6.53;;;3.30;;
13475;SDS011;6810;63.824;20.288;2023-02-17T11:37:48;9.87;;;4.43;;
13475;SDS011;6810;63.824;20.288;2023-02-17T11:40:50;8.10;;;3.77;;
13475;SDS011;6810;63.824;20.288;2023-02-17T11:43:17;8.30;;;4.13;;
13475;SDS011;6810;63.824;20.288;2023-02-17T11:54:17;8.10;;;4.27;;
13475;SDS011;6810;63.824;20.288;2023-02-17T12:05:34;9.87;;;4.80;;
13475;SDS011;6810;63.824;20.288;2023-02-17T12:17:04;10.90;;;4.83;;
13475;SDS011;6810;63.824;20.288;2023-02-17T12:19:57;9.30;;;4.83;;
13475;SDS011;6810;63.824;20.288;2023-02-17T12:25:36;9.67;;;4.67;;
13475;SDS011;6810;63.824;20.288;2023-02-17T12:36:40;10.23;;;4.70;;
13475;SDS011;6810;63.824;20.288;2023-02-17T12:39:29;9.77;;;4.40;;
13475;SDS011;6810;63.824;20.288;2023-02-17T12:42:32;9.30;;;4.57;;
13475;SDS011;6810;63.824;20.288;2023-02-17T12:45:24;7.37;;;4.57;;
13475;SDS011;6810;63.824;20.288;2023-02-17T12:48:33;7.47;;;4.57;;
13475;SDS011;6810;63.824;20.288;2023-02-17T12:51:40;8.13;;;4.43;;
13475;SDS011;6810;63.824;20.288;2023-02-17T12:54:32;7.97;;;4.00;;
13475;SDS011;6810;63.824;20.288;2023-02-17T12:57:24;8.23;;;4.37;;
13475;SDS011;6810;63.824;20.288;2023-02-17T13:00:33;10.97;;;4.30;;
13475;SDS011;6810;63.824;20.288;2023-02-17T13:03:27;10.13;;;4.13;;
13475;SDS011;6810;63.824;20.288;2023-02-17T13:06:20;10.37;;;4.07;;
13475;SDS011;6810;63.824;20.288;2023-02-17T13:18:28;7.50;;;3.93;;
13475;SDS011;6810;63.824;20.288;2023-02-17T13:21:25;9.07;;;4.60;;
13475;SDS011;6810;63.824;20.288;2023-02-17T13:24:36;10.10;;;4.43;;
13475;SDS011;6810;63.824;20.288;2023-02-17T13:36:13;11.07;;;5.10;;
13475;SDS011;6810;63.824;20.288;2023-02-17T13:41:55;11.30;;;4.70;;
13475;SDS011;6810;63.824;20.288;2023-02-17T13:47:40;8.77;;;4.30;;
13475;SDS011;6810;63.824;20.288;2023-02-17T13:50:03;8.43;;;4.27;;
13475;SDS011;6810;63.824;20.288;2023-02-17T13:52:51;8.20;;;4.23;;
13475;SDS011;6810;63.824;20.288;2023-02-17T13:55:38;8.40;;;3.90;;
13475;SDS011;6810;63.824;20.288;2023-02-17T14:01:19;8.97;;;4.00;;
13475;SDS011;6810;63.824;20.288;2023-02-17T14:07:11;8.30;;;4.07;;
13475;SDS011;6810;63.824;20.288;2023-02-17T14:09:38;8.30;;;3.47;;
13475;SDS011;6810;63.824;20.288;2023-02-17T14:12:13;8.00;;;4.23;;
13475;SDS011;6810;63.824;20.288;2023-02-17T14:14:46;7.83;;;4.20;;
13475;SDS011;6810;63.824;20.288;2023-02-17T14:17:24;8.43;;;4.30;;
13475;SDS011;6810;63.824;20.288;2023-02-17T14:19:58;8.83;;;4.73;;
13475;SDS011;6810;63.824;20.288;2023-02-17T14:22:30;14.85;;;7.28;;
13475;SDS011;6810;63.824;20.288;2023-02-17T14:25:10;10.87;;;5.90;;
13475;SDS011;6810;63.824;20.288;2023-02-17T14:27:44;12.37;;;4.80;;
13475;SDS011;6810;63.824;20.288;2023-02-17T14:36:06;11.00;;;4.50;;
13475;SDS011;6810;63.824;20.288;2023-02-17T14:38:54;10.73;;;5.00;;
13475;SDS011;6810;63.824;20.288;2023-02-17T14:41:42;10.97;;;4.50;;
13475;SDS011;6810;63.824;20.288;2023-02-17T14:44:29;11.40;;;4.83;;
13475;SDS011;6810;63.824;20.288;2023-02-17T14:47:16;11.47;;;4.63;;
13475;SDS011;6810;63.824;20.288;2023-02-17T14:50:05;7.67;;;3.93;;
13475;SDS011;6810;63.824;20.288;2023-02-17T14:52:32;10.00;;;4.67;;
13475;SDS011;6810;63.824;20.288;2023-02-17T14:55:15;10.80;;;4.90;;
13475;SDS011;6810;63.824;20.288;2023-02-17T14:58:19;10.90;;;4.57;;
13475;SDS011;6810;63.824;20.288;2023-02-17T15:01:09;9.47;;;4.63;;
13475;SDS011;6810;63.824;20.288;2023-02-17T15:03:58;9.23;;;4.97;;
13475;SDS011;6810;63.824;20.288;2023-02-17T15:06:46;9.33;;;4.27;;
13475;SDS011;6810;63.824;20.288;2023-02-17T15:09:34;8.67;;;4.60;;
13475;SDS011;6810;63.824;20.288;2023-02-17T15:12:21;10.77;;;5.40;;
13475;SDS011;6810;63.824;20.288;2023-02-17T15:15:12;10.47;;;4.83;;
13475;SDS011;6810;63.824;20.288;2023-02-17T15:18:01;11.03;;;4.93;;
13475;SDS011;6810;63.824;20.288;2023-02-17T15:20:48;9.17;;;4.70;;
13475;SDS011;6810;63.824;20.288;2023-02-17T15:23:25;9.20;;;4.47;;
13475;SDS011;6810;63.824;20.288;2023-02-17T15:25:57;7.83;;;4.37;;
13475;SDS011;6810;63.824;20.288;2023-02-17T15:28:24;8.97;;;4.37;;
13475;SDS011;6810;63.824;20.288;2023-02-17T15:30:52;9.27;;;4.63;;
13475;SDS011;6810;63.824;20.288;2023-02-17T15:33:44;9.40;;;4.37;;
13475;SDS011;6810;63.824;20.288;2023-02-17T15:36:36;6.07;;;3.70;;
13475;SDS011;6810;63.824;20.288;2023-02-17T15:39:23;9.57;;;4.07;;
13475;SDS011;6810;63.824;20.288;2023-02-17T15:42:11;4.60;;;3.40;;
13475;SDS011;6810;63.824;20.288;2023-02-17T15:44:58;7.93;;;3.73;;
13475;SDS011;6810;63.824;20.288;2023-02-17T15:47:46;8.17;;;4.13;;
13475;SDS011;6810;63.824;20.288;2023-02-17T15:50:34;8.90;;;3.80;;
13475;SDS011;6810;63.824;20.288;2023-02-17T15:53:21;9.07;;;4.00;;
13475;SDS011;6810;63.824;20.288;2023-02-17T15:56:12;8.00;;;3.87;;
13475;SDS011;6810;63.824;20.288;2023-02-17T15:59:07;5.83;;;3.60;;
13475;SDS011;6810;63.824;20.288;2023-02-17T16:01:59;5.90;;;3.17;;
13475;SDS011;6810;63.824;20.288;2023-02-17T16:04:46;6.47;;;3.47;;
13475;SDS011;6810;63.824;20.288;2023-02-17T16:07:33;9.77;;;4.00;;
13475;SDS011;6810;63.824;20.288;2023-02-17T16:10:21;6.47;;;3.57;;
13475;SDS011;6810;63.824;20.288;2023-02-17T16:13:10;6.60;;;3.50;;
13475;SDS011;6810;63.824;20.288;2023-02-17T16:16:00;6.40;;;3.63;;
13475;SDS011;6810;63.824;20.288;2023-02-17T16:18:47;6.27;;;3.40;;
13475;SDS011;6810;63.824;20.288;2023-02-17T16:21:35;8.50;;;3.70;;
13475;SDS011;6810;63.824;20.288;2023-02-17T16:24:22;8.40;;;4.23;;
13475;SDS011;6810;63.824;20.288;2023-02-17T16:27:10;8.77;;;3.97;;
13475;SDS011;6810;63.824;20.288;2023-02-17T16:30:00;7.70;;;4.10;;
13475;SDS011;6810;63.824;20.288;2023-02-17T16:32:47;8.40;;;3.80;;
13475;SDS011;6810;63.824;20.288;2023-02-17T16:35:35;8.07;;;3.70;;
13475;SDS011;6810;63.824;20.288;2023-02-17T16:38:23;9.40;;;4.50;;
13475;SDS011;6810;63.824;20.288;2023-02-17T16:41:11;7.97;;;3.97;;
13475;SDS011;6810;63.824;20.288;2023-02-17T16:43:59;7.83;;;3.90;;
13475;SDS011;6810;63.824;20.288;2023-02-17T16:46:47;10.63;;;4.10;;
13475;SDS011;6810;63.824;20.288;2023-02-17T16:49:36;6.97;;;3.97;;
13475;SDS011;6810;63.824;20.288;2023-02-17T16:52:24;9.50;;;4.03;;
13475;SDS011;6810;63.824;20.288;2023-02-17T16:55:16;11.70;;;3.87;;
13475;SDS011;6810;63.824;20.288;2023-02-17T16:58:10;12.50;;;4.07;;
13475;SDS011;6810;63.824;20.288;2023-02-17T17:01:00;9.37;;;3.93;;
13475;SDS011;6810;63.824;20.288;2023-02-17T17:03:49;8.23;;;3.60;;
13475;SDS011;6810;63.824;20.288;2023-02-17T17:06:37;9.30;;;3.47;;
13475;SDS011;6810;63.824;20.288;2023-02-17T17:09:29;11.53;;;3.93;;
13475;SDS011;6810;63.824;20.288;2023-02-17T17:12:36;7.87;;;3.60;;
13475;SDS011;6810;63.824;20.288;2023-02-17T17:15:23;7.53;;;3.33;;
13475;SDS011;6810;63.824;20.288;2023-02-17T17:18:14;7.33;;;3.20;;
13475;SDS011;6810;63.824;20.288;2023-02-17T17:21:05;11.27;;;3.33;;
13475;SDS011;6810;63.824;20.288;2023-02-17T17:23:52;10.73;;;3.13;;
13475;SDS011;6810;63.824;20.288;2023-02-17T17:26:45;9.40;;;3.60;;
13475;SDS011;6810;63.824;20.288;2023-02-17T17:29:33;7.63;;;3.67;;
13475;SDS011;6810;63.824;20.288;2023-02-17T17:32:20;8.43;;;3.47;;
13475;SDS011;6810;63.824;20.288;2023-02-17T17:35:07;9.87;;;3.37;;
13475;SDS011;6810;63.824;20.288;2023-02-17T17:37:54;8.90;;;3.17;;
13475;SDS011;6810;63.824;20.288;2023-02-17T17:40:49;8.93;;;3.03;;
13475;SDS011;6810;63.824;20.288;2023-02-17T17:43:36;8.00;;;3.20;;
13475;SDS011;6810;63.824;20.288;2023-02-17T17:46:25;6.73;;;3.37;;
13475;SDS011;6810;63.824;20.288;2023-02-17T17:49:15;9.70;;;3.60;;
13475;SDS011;6810;63.824;20.288;2023-02-17T17:52:03;8.40;;;3.43;;
13475;SDS011;6810;63.824;20.288;2023-02-17T17:54:50;6.90;;;3.53;;
13475;SDS011;6810;63.824;20.288;2023-02-17T17:57:39;6.90;;;3.10;;
13475;SDS011;6810;63.824;20.288;2023-02-17T18:00:12;9.10;;;3.53;;
13475;SDS011;6810;63.824;20.288;2023-02-17T18:03:01;8.90;;;3.70;;
13475;SDS011;6810;63.824;20.288;2023-02-17T18:05:47;7.03;;;3.40;;
13475;SDS011;6810;63.824;20.288;2023-02-17T18:08:35;6.40;;;2.53;;
13475;SDS011;6810;63.824;20.288;2023-02-17T18:11:22;6.27;;;3.00;;
13475;SDS011;6810;63.824;20.288;2023-02-17T18:13:51;4.77;;;2.90;;
13475;SDS011;6810;63.824;20.288;2023-02-17T18:16:21;4.83;;;2.60;;
13475;SDS011;6810;63.824;20.288;2023-02-17T18:18:50;4.67;;;2.80;;
13475;SDS011;6810;63.824;20.288;2023-02-17T18:21:37;4.53;;;2.67;;
13475;SDS011;6810;63.824;20.288;2023-02-17T18:24:24;4.80;;;2.20;;
13475;SDS011;6810;63.824;20.288;2023-02-17T18:27:11;3.33;;;2.10;;
13475;SDS011;6810;63.824;20.288;2023-02-17T18:29:58;3.80;;;1.77;;
13475;SDS011;6810;63.824;20.288;2023-02-17T18:32:45;3.70;;;2.17;;
13475;SDS011;6810;63.824;20.288;2023-02-17T18:35:33;3.37;;;1.80;;
13475;SDS011;6810;63.824;20.288;2023-02-17T18:38:21;5.00;;;1.90;;
13475;SDS011;6810;63.824;20.288;2023-02-17T18:41:15;2.97;;;1.80;;
13475;SDS011;6810;63.824;20.288;2023-02-17T18:44:06;1.70;;;1.50;;
13475;SDS011;6810;63.824;20.288;2023-02-17T18:46:53;3.23;;;1.53;;
13475;SDS011;6810;63.824;20.288;2023-02-17T18:49:40;2.70;;;1.47;;
13475;SDS011;6810;63.824;20.288;2023-02-17T18:52:27;3.20;;;1.80;;